Medicine Hat Airport
CYXH : now visible

Airfield :











YOU CAN JOIN US ON...

 
LOGIN :

Register | Disclaimer

   EN    FR    IT 

 









Legend :    VFR   Marginal VFR   IFR   Intensive IFR   Very Intensive IFR
Visi :
Ceiling :
>= 8 km
>= 3000ft
5 to 8 km
1000 to 3000 ft
1500m to 5 km
500 to 1000 ft
800 to 1500m
200 to 500 ft
< 800m
< 200 ft
Symbols :   Thunderstorms  Fog  Heavy snow  Heavy precipitations  Wind > 20 kt






- Airport Elevation : 2352 ft
- IATA code : YXH


CYXH - Medicine Hat

CURRENT METAR :
  • 042200Z 34003KT 280V360 30SM FEW084 28/08 A3003 RMK CU1 SLP165 DENSITY ALT 4200FT

EXPIRED METARs :
  • 042100Z 19003KT 30SM FEW074 27/08 A3004 RMK CU1 SLP168 DENSITY ALT 4200FT
  • 042000Z 21003KT 180V270 30SM FEW066 26/08 A3006 RMK CU1 SLP174 DENSITY ALT 4000FT

TAF TAF CYXH
Valid from the 04 at 18:00 until the 05 at 06:00 UTC


041739Z 0418/0506 30005KT P6SM FEW270
BECMG 0418/0420 25008KT
FM050100 VRB03KT P6SM FEW050 RMK NXT FCST BY 050000Z
CZEG FIR / North America



MET'MAP, your aeronautical weather chart ! - Copyright ORBIFLY December 2007 - Disclaimer

ORBIFLY MET'MAP TEAM :

Programming & Development : Alexandra Zaïnal
Concept & original design : Baudouin d'Aumeries
Assistance for programming : Marc-Olivier Méhu
Technical & hardware support : Manuel Goepfert

Contact : metmap@orbifly.com




SOURCES & CREDITS :

   NOAA       Earth
Advisory